Time;durP1;ratioP1;P1;durP2;ratioP2;P2;SDS_P1;SDS_P2;PMS_P1;PMS_P2;Temp;Humidity;BMP_temperature;BMP_pressure;BME280_temperature;BME280_humidity;BME280_pressure;Samples;Min_cycle;Max_cycle;Signal;HPM_P1;HPM_P2
2024/04/11 00:00:57;;;;;;;8.23;2.30;;;;;;;11.48;47.75;102587.56;5341383;26;20000;-51
2024/04/11 00:03:23;;;;;;;6.07;1.52;;;;;;;11.56;47.85;102583.44;5356511;26;20439;-52
2024/04/11 00:05:49;;;;;;;7.50;1.90;;;;;;;11.82;47.09;102586.25;5340785;26;20084;-50
2024/04/11 00:08:15;;;;;;;7.82;1.50;;;;;;;11.49;48.41;102589.28;5336614;26;20005;-51
2024/04/11 00:10:41;;;;;;;8.93;1.77;;;;;;;11.44;47.86;102578.03;5343725;26;20015;-54
2024/04/11 00:13:07;;;;;;;9.88;1.90;;;;;;;11.20;48.99;102583.13;5381824;26;20003;-51
2024/04/11 00:15:33;;;;;;;6.57;2.03;;;;;;;11.49;48.26;102597.28;5387826;26;20465;-52
2024/04/11 00:17:59;;;;;;;7.28;1.83;;;;;;;11.68;47.74;102591.63;5384621;26;20004;-54
2024/04/11 00:20:27;;;;;;;9.80;2.50;;;;;;;11.53;48.61;102580.09;5372889;26;20426;-53
2024/04/11 00:22:52;;;;;;;7.00;1.63;;;;;;;11.56;48.67;102571.91;5352575;26;20020;-52
2024/04/11 00:25:19;;;;;;;9.98;2.40;;;;;;;11.67;48.05;102569.41;5335251;26;20017;-54
2024/04/11 00:27:46;;;;;;;12.73;2.03;;;;;;;11.34;48.63;102564.41;5371238;26;20001;-54
2024/04/11 00:30:12;;;;;;;8.88;2.00;;;;;;;11.47;48.11;102569.81;5378143;26;20000;-56
2024/04/11 00:32:37;;;;;;;6.53;1.85;;;;;;;11.70;48.16;102555.88;5365699;26;20254;-56
2024/04/11 00:35:04;;;;;;;9.10;1.85;;;;;;;11.99;47.14;102553.91;5366315;26;20053;-46
2024/04/11 00:37:31;;;;;;;7.10;1.70;;;;;;;11.68;48.05;102555.09;5388673;26;19999;-53
2024/04/11 00:39:58;;;;;;;6.80;1.92;;;;;;;11.63;47.88;102567.06;5381156;26;20004;-51
2024/04/11 00:42:24;;;;;;;10.77;2.10;;;;;;;11.65;47.97;102573.97;5375157;26;20016;-57
2024/04/11 00:44:49;;;;;;;8.95;2.20;;;;;;;11.92;47.63;102560.66;5379730;26;20078;-54
2024/04/11 00:47:16;;;;;;;9.30;1.88;;;;;;;11.93;47.45;102557.00;5375510;26;20000;-52
2024/04/11 00:49:46;;;;;;;9.95;2.20;;;;;;;11.77;47.61;102545.63;5356938;26;19996;-50
2024/04/11 00:52:13;;;;;;;6.83;1.93;;;;;;;11.55;48.57;102536.31;5346962;26;20012;-48
2024/04/11 00:54:40;;;;;;;10.20;2.20;;;;;;;11.41;48.40;102538.19;5342427;26;20039;-53
2024/04/11 00:57:08;;;;;;;9.68;2.20;;;;;;;11.62;48.44;102528.81;5339566;26;20015;-56
2024/04/11 00:59:36;;;;;;;9.02;2.50;;;;;;;11.53;48.86;102524.03;5378806;26;20300;-54
2024/04/11 01:02:04;;;;;;;9.57;1.95;;;;;;;11.61;48.97;102532.44;5374161;26;20008;-56
2024/04/11 01:04:33;;;;;;;8.30;2.17;;;;;;;11.75;48.56;102520.81;5378556;26;20004;-54
2024/04/11 01:07:08;;;;;;;5.47;1.88;;;;;;;11.54;49.07;102517.72;5372746;26;20428;-54
2024/04/11 01:09:35;;;;;;;6.47;2.50;;;;;;;11.85;48.41;102498.75;5364218;26;20000;-53
2024/04/11 01:12:02;;;;;;;7.25;1.73;;;;;;;11.88;48.55;102503.00;5382550;26;20015;-55
2024/04/11 01:14:28;;;;;;;7.50;1.85;;;;;;;12.07;47.59;102515.97;5368541;26;20016;-49
2024/04/11 01:16:54;;;;;;;11.48;2.53;;;;;;;11.67;48.72;102529.34;5387031;26;20014;-49
2024/04/11 01:19:23;;;;;;;8.85;1.73;;;;;;;11.04;49.64;102518.31;5364880;26;20016;-51
2024/04/11 01:21:50;;;;;;;11.65;2.38;;;;;;;11.64;48.87;102528.72;5343825;26;20245;-56
2024/04/11 01:24:15;;;;;;;8.10;1.98;;;;;;;11.70;49.08;102522.97;5351481;26;20012;-54
2024/04/11 01:26:42;;;;;;;10.93;2.03;;;;;;;11.31;50.55;102521.88;5337023;26;20004;-55
2024/04/11 01:29:07;;;;;;;5.72;1.65;;;;;;;11.20;50.11;102506.59;5350133;26;20011;-54
2024/04/11 01:31:34;;;;;;;7.15;2.00;;;;;;;11.52;49.69;102515.16;5369689;26;20347;-53
2024/04/11 01:34:00;;;;;;;8.18;2.00;;;;;;;11.79;48.93;102503.63;5360504;26;20015;-55
2024/04/11 01:36:26;;;;;;;4.65;2.05;;;;;;;11.77;49.46;102501.06;5333449;26;20333;-53
2024/04/11 01:38:51;;;;;;;5.88;1.52;;;;;;;11.65;49.87;102509.88;5359631;26;20011;-52
2024/04/11 01:41:17;;;;;;;5.75;1.50;;;;;;;11.86;48.71;102499.56;5373498;26;20015;-53
2024/04/11 01:43:43;;;;;;;3.97;1.20;;;;;;;11.59;49.43;102508.44;5369001;26;20004;-54
2024/04/11 01:46:12;;;;;;;6.53;1.50;;;;;;;11.93;48.81;102483.03;5380212;26;20427;-54
2024/04/11 01:51:59;;;;;;;7.43;1.92;;;;;;;11.74;49.60;102477.22;5325557;26;20020;-52
2024/04/11 01:54:25;;;;;;;5.68;1.50;;;;;;;12.30;47.79;102485.84;5320418;26;20012;-51
2024/04/11 01:56:50;;;;;;;4.55;1.85;;;;;;;12.19;48.60;102480.41;5371793;26;20001;-52
2024/04/11 01:59:19;;;;;;;6.15;1.58;;;;;;;11.97;48.74;102468.53;5343829;26;19996;-50
2024/04/11 02:01:45;;;;;;;8.15;1.70;;;;;;;12.46;47.75;102470.47;5355373;26;19997;-54
2024/04/11 02:04:11;;;;;;;6.40;1.50;;;;;;;12.16;48.52;102461.91;5353158;26;20019;-54
2024/04/11 02:06:38;;;;;;;14.35;1.90;;;;;;;12.18;48.63;102465.34;5297658;26;20083;-52
2024/04/11 02:09:15;;;;;;;9.63;1.50;;;;;;;11.54;50.08;102467.00;5347935;26;20011;-56
2024/04/11 02:11:47;;;;;;;6.03;1.40;;;;;;;12.35;48.56;102475.69;5344253;26;20023;-52
2024/04/11 02:14:13;;;;;;;8.48;1.63;;;;;;;11.91;49.47;102470.75;5385621;26;20011;-54
2024/04/11 02:16:39;;;;;;;8.60;1.77;;;;;;;11.97;49.60;102467.66;5365046;26;20000;-55
2024/04/11 02:19:06;;;;;;;6.30;1.40;;;;;;;12.18;49.20;102465.34;5362844;26;20527;-54
2024/04/11 02:21:43;;;;;;;7.82;1.50;;;;;;;11.64;50.49;102477.97;5378540;26;20014;-52
2024/04/11 02:24:16;;;;;;;8.27;1.83;;;;;;;11.88;49.50;102476.28;5338210;26;20472;-55
2024/04/11 02:26:47;;;;;;;3.80;1.33;;;;;;;12.33;49.06;102475.78;5362914;26;20499;-51
2024/04/11 02:29:18;;;;;;;9.40;2.20;;;;;;;12.07;49.50;102483.91;5351527;26;20001;-50
2024/04/11 02:31:44;;;;;;;5.63;1.70;;;;;;;12.24;49.70;102481.81;5366911;26;20895;-54
2024/04/11 02:34:10;;;;;;;7.38;2.22;;;;;;;11.83;50.13;102486.44;5332866;26;20341;-56
2024/04/11 02:36:35;;;;;;;4.40;1.38;;;;;;;12.06;49.96;102483.03;5352914;26;20004;-52
2024/04/11 02:39:07;;;;;;;7.88;1.83;;;;;;;12.06;49.80;102468.84;5329118;26;20004;-56
2024/04/11 02:41:37;;;;;;;8.30;1.83;;;;;;;12.32;49.20;102479.44;5330660;26;20004;-55
2024/04/11 02:44:04;;;;;;;9.02;1.42;;;;;;;12.39;49.25;102471.84;5341764;26;20012;-54
2024/04/11 02:46:31;;;;;;;4.85;1.10;;;;;;;12.33;49.30;102467.78;5315193;26;19996;-51
2024/04/11 02:48:57;;;;;;;4.68;1.30;;;;;;;12.20;49.70;102466.06;5287357;26;20004;-53
2024/04/11 02:51:23;;;;;;;6.03;1.90;;;;;;;12.20;49.58;102469.59;5369804;26;20019;-52
2024/04/11 02:53:49;;;;;;;8.85;1.60;;;;;;;12.33;49.75;102472.28;5342716;26;20002;-50
2024/04/11 02:56:16;;;;;;;5.53;1.33;;;;;;;12.29;50.55;102478.78;5358144;26;20017;-52
2024/04/11 02:58:42;;;;;;;7.95;2.05;;;;;;;12.32;49.26;102470.56;5328687;26;21328;-52
2024/04/11 03:01:10;;;;;;;6.65;1.63;;;;;;;12.25;50.17;102483.50;5340588;26;20014;-55
2024/04/11 03:03:37;;;;;;;7.50;1.63;;;;;;;12.45;50.30;102479.44;5354508;26;20463;-53
2024/04/11 03:06:07;;;;;;;5.47;1.35;;;;;;;12.29;50.47;102476.97;5366438;26;20004;-55
2024/04/11 03:08:34;;;;;;;11.15;2.47;;;;;;;12.03;51.41;102482.41;5375004;26;20000;-49
2024/04/11 03:11:03;;;;;;;6.60;1.30;;;;;;;12.71;49.79;102473.13;5359655;26;20001;-51
2024/04/11 03:13:29;;;;;;;12.18;2.50;;;;;;;12.57;50.24;102478.56;5367880;26;20382;-53
2024/04/11 03:15:58;;;;;;;8.07;1.80;;;;;;;12.47;50.62;102471.31;5376695;26;20433;-53
2024/04/11 03:18:24;;;;;;;9.35;1.92;;;;;;;12.09;51.51;102464.13;5360603;26;20009;-54
2024/04/11 03:20:54;;;;;;;8.52;1.70;;;;;;;12.62;51.18;102464.88;5345198;26;20012;-53
2024/04/11 03:23:21;;;;;;;8.77;2.08;;;;;;;12.32;51.71;102467.91;5357759;26;20017;-51
2024/04/11 03:25:47;;;;;;;14.07;1.90;;;;;;;11.89;52.77;102460.16;5365363;26;20019;-54
2024/04/11 03:28:14;;;;;;;11.68;1.80;;;;;;;12.53;51.36;102469.06;5361384;26;20013;-55
2024/04/11 03:30:41;;;;;;;11.23;1.75;;;;;;;12.12;53.03;102461.28;5360540;26;20003;-54
2024/04/11 03:33:07;;;;;;;8.60;1.60;;;;;;;12.36;52.36;102474.72;5372446;26;20082;-50
2024/04/11 03:35:33;;;;;;;9.25;1.60;;;;;;;12.68;50.90;102469.81;5364266;26;19997;-49
2024/04/11 03:37:58;;;;;;;8.07;1.67;;;;;;;12.91;50.44;102468.16;5356416;26;20016;-51
2024/04/11 03:40:24;;;;;;;7.82;1.80;;;;;;;12.80;50.60;102458.25;5365531;26;20324;-54
2024/04/11 03:42:50;;;;;;;5.50;1.48;;;;;;;12.99;49.70;102466.66;5310867;26;20000;-57
2024/04/11 03:45:23;;;;;;;6.30;1.60;;;;;;;13.00;50.23;102463.00;5358596;26;20004;-54
2024/04/11 03:47:49;;;;;;;5.50;1.60;;;;;;;12.61;51.55;102453.34;5360126;26;19996;-55
2024/04/11 03:50:15;;;;;;;6.25;1.70;;;;;;;12.34;52.47;102449.91;5373677;26;20450;-51
2024/04/11 03:52:42;;;;;;;6.95;2.13;;;;;;;12.42;52.72;102468.09;5363558;26;20011;-52
2024/04/11 03:55:12;;;;;;;7.13;1.63;;;;;;;12.37;53.13;102450.56;5368788;26;20003;-51
2024/04/11 03:57:38;;;;;;;5.90;1.65;;;;;;;12.47;53.33;102458.78;5348449;26;20016;-55
2024/04/11 04:00:07;;;;;;;10.30;1.80;;;;;;;12.70;52.54;102457.19;5366632;26;20004;-51
2024/04/11 04:02:37;;;;;;;10.90;1.95;;;;;;;12.49;53.86;102461.34;5355970;26;20027;-54
2024/04/11 04:05:03;;;;;;;9.02;1.85;;;;;;;12.25;54.61;102459.44;5356386;26;20016;-49
2024/04/11 04:07:29;;;;;;;11.60;1.80;;;;;;;12.47;54.28;102458.78;5378046;26;20000;-51
2024/04/11 04:09:56;;;;;;;7.35;1.63;;;;;;;12.53;54.03;102463.72;5372072;26;20020;-54
2024/04/11 04:12:22;;;;;;;5.45;1.52;;;;;;;12.19;56.30;102461.69;5371298;26;19999;-51
2024/04/11 04:14:49;;;;;;;5.70;1.55;;;;;;;11.91;59.14;102462.75;5353859;26;20015;-51
2024/04/11 04:17:16;;;;;;;6.47;1.90;;;;;;;12.34;59.17;102468.63;5370270;26;20005;-53
2024/04/11 04:19:42;;;;;;;7.75;1.80;;;;;;;12.38;59.52;102478.16;5342736;26;20466;-55
2024/04/11 04:22:13;;;;;;;10.95;1.90;;;;;;;12.44;59.60;102479.53;5362262;26;20014;-53
2024/04/11 04:24:40;;;;;;;10.57;1.67;;;;;;;12.49;59.88;102478.25;5365431;26;20011;-53
2024/04/11 04:27:06;;;;;;;9.88;1.85;;;;;;;12.12;61.11;102481.78;5351315;26;20036;-49
2024/04/11 04:29:33;;;;;;;13.13;3.08;;;;;;;12.17;61.46;102476.97;5367959;26;20343;-54
2024/04/11 04:31:59;;;;;;;6.82;2.17;;;;;;;12.47;61.95;102479.34;5366834;26;20004;-54
2024/04/11 04:34:25;;;;;;;12.00;2.13;;;;;;;12.13;63.24;102475.47;5367054;26;20007;-50
2024/04/11 04:36:51;;;;;;;13.20;2.22;;;;;;;11.90;65.41;102477.91;5367631;26;20324;-59
2024/04/11 04:39:17;;;;;;;10.77;2.15;;;;;;;11.92;65.44;102475.97;5365256;26;20004;-56
2024/04/11 04:41:43;;;;;;;10.02;2.63;;;;;;;12.04;64.61;102476.97;5364396;26;20011;-52
2024/04/11 04:44:09;;;;;;;8.35;2.30;;;;;;;11.95;65.58;102473.09;5350154;26;20000;-54
2024/04/11 04:46:36;;;;;;;8.98;1.98;;;;;;;12.15;65.49;102474.41;5367658;26;20481;-50
2024/04/11 04:49:09;;;;;;;10.82;2.25;;;;;;;11.84;67.52;102486.34;5369397;26;20012;-49
2024/04/11 04:51:36;;;;;;;6.60;1.80;;;;;;;11.78;69.62;102473.41;5381806;26;20002;-49
2024/04/11 04:54:02;;;;;;;7.13;1.60;;;;;;;12.13;68.69;102473.66;5399178;26;20118;-51
2024/04/11 04:56:29;;;;;;;10.50;2.30;;;;;;;11.88;69.95;102473.63;5380917;26;20012;-49
2024/04/11 04:58:57;;;;;;;13.00;3.55;;;;;;;11.86;70.24;102476.41;5381328;26;20019;-46
2024/04/11 05:01:23;;;;;;;9.07;2.03;;;;;;;11.71;71.77;102472.13;5373999;26;20057;-54
2024/04/11 05:03:50;;;;;;;8.30;1.70;;;;;;;11.82;71.78;102472.22;5367584;26;20011;-49
2024/04/11 05:06:18;;;;;;;7.40;2.17;;;;;;;11.72;73.54;102476.47;5377680;26;20312;-50
2024/04/11 05:08:48;;;;;;;8.60;2.25;;;;;;;11.66;72.98;102473.34;5380097;26;20262;-49
2024/04/11 05:11:14;;;;;;;10.02;2.17;;;;;;;11.74;73.21;102477.22;5375710;26;20019;-54
2024/04/11 05:13:42;;;;;;;8.25;2.20;;;;;;;11.36;74.71;102478.91;5366751;26;20000;-49
2024/04/11 05:16:09;;;;;;;11.20;2.53;;;;;;;11.39;75.50;102473.34;5369503;26;20326;-46
2024/04/11 05:18:39;;;;;;;10.02;2.40;;;;;;;11.23;76.19;102478.00;5353744;26;20000;-52
2024/04/11 05:21:16;;;;;;;9.98;3.05;;;;;;;11.29;76.20;102491.78;5376142;26;20019;-51
2024/04/11 05:23:42;;;;;;;15.73;2.53;;;;;;;11.15;77.01;102498.03;5355365;26;20140;-50
2024/04/11 05:26:14;;;;;;;10.65;2.90;;;;;;;11.48;76.03;102507.47;5366473;26;20019;-52
2024/04/11 05:28:44;;;;;;;9.05;2.10;;;;;;;11.35;75.90;102522.56;5385508;26;20000;-50
2024/04/11 05:31:14;;;;;;;11.57;2.83;;;;;;;11.20;77.12;102517.25;5365551;26;20012;-49
2024/04/11 05:33:41;;;;;;;9.95;2.60;;;;;;;11.01;78.14;102535.41;5349603;26;20603;-53
2024/04/11 05:36:12;;;;;;;13.27;2.70;;;;;;;11.36;76.43;102534.97;5363206;26;20004;-51
2024/04/11 05:38:38;;;;;;;8.45;2.50;;;;;;;11.36;76.51;102530.47;5353852;26;20011;-48
2024/04/11 05:41:05;;;;;;;12.88;3.00;;;;;;;11.27;77.47;102524.88;5382004;26;20010;-49
2024/04/11 05:43:30;;;;;;;8.80;2.50;;;;;;;11.02;78.04;102536.25;5359824;26;20323;-51
2024/04/11 05:45:57;;;;;;;12.63;2.78;;;;;;;11.51;76.34;102529.47;5380565;26;20226;-50
2024/04/11 05:48:24;;;;;;;15.43;4.82;;;;;;;11.21;76.62;102531.47;5365362;26;20015;-52
2024/04/11 05:50:54;;;;;;;10.02;2.38;;;;;;;11.19;77.46;102542.22;5387616;26;20010;-53
2024/04/11 05:53:20;;;;;;;11.68;2.70;;;;;;;11.19;77.66;102560.91;5367936;26;20008;-51
2024/04/11 05:55:46;;;;;;;11.43;2.50;;;;;;;11.59;76.79;102556.53;5374593;26;20023;-48
2024/04/11 05:58:12;;;;;;;9.48;3.55;;;;;;;11.20;78.31;102565.31;5396299;26;20003;-52
2024/04/11 06:00:39;;;;;;;9.70;2.60;;;;;;;11.61;77.37;102569.81;5372311;26;20023;-49
2024/04/11 06:03:08;;;;;;;17.40;3.83;;;;;;;11.73;76.82;102561.00;5392754;26;20413;-49
2024/04/11 06:05:34;;;;;;;14.88;3.05;;;;;;;11.60;76.73;102562.75;5384184;26;20014;-47
2024/04/11 06:08:00;;;;;;;11.85;2.85;;;;;;;11.10;78.99;102569.50;5403561;26;20521;-50
2024/04/11 06:10:29;;;;;;;14.20;3.72;;;;;;;11.33;80.10;102569.84;5386996;26;20423;-52
2024/04/11 06:12:54;;;;;;;16.17;3.58;;;;;;;11.54;78.78;102571.13;5350570;26;20004;-48
2024/04/11 06:15:21;;;;;;;12.57;3.75;;;;;;;11.57;78.58;102573.63;5366894;26;20000;-49
2024/04/11 06:17:47;;;;;;;13.35;3.33;;;;;;;11.85;78.08;102581.56;5403088;26;20334;-52
2024/04/11 06:20:21;;;;;;;10.20;4.28;;;;;;;11.69;78.14;102580.88;5362076;26;20022;-51
2024/04/11 06:22:55;;;;;;;12.55;3.80;;;;;;;11.70;77.95;102577.25;5391198;26;21903;-54
2024/04/11 06:25:21;;;;;;;14.48;3.65;;;;;;;11.86;77.43;102580.59;5396376;26;20105;-53
2024/04/11 06:27:48;;;;;;;13.65;4.25;;;;;;;11.75;79.15;102584.94;5408201;26;20505;-53
2024/04/11 06:30:19;;;;;;;11.15;4.55;;;;;;;11.72;78.91;102583.31;5352651;26;20015;-50
2024/04/11 06:32:49;;;;;;;11.00;3.92;;;;;;;11.78;79.51;102590.09;5376202;26;20792;-51
2024/04/11 06:35:15;;;;;;;12.65;3.95;;;;;;;11.76;78.36;102597.34;5360305;26;20019;-49
2024/04/11 06:37:44;;;;;;;13.48;3.95;;;;;;;11.72;78.73;102594.00;5392867;26;20008;-54
2024/04/11 06:40:13;;;;;;;11.52;3.72;;;;;;;11.80;78.87;102598.84;5366269;26;20000;-52
2024/04/11 06:42:46;;;;;;;13.27;3.85;;;;;;;12.01;78.48;102597.44;5381286;26;20000;-49
2024/04/11 06:45:23;;;;;;;11.90;3.55;;;;;;;11.94;77.73;102599.66;5395067;26;20000;-52
2024/04/11 06:47:49;;;;;;;16.40;4.68;;;;;;;12.03;78.55;102600.88;5377219;26;20745;-49
2024/04/11 06:50:15;;;;;;;12.35;3.53;;;;;;;12.26;77.59;102596.66;5404838;26;20064;-53
2024/04/11 06:52:45;;;;;;;10.63;3.20;;;;;;;11.80;79.98;102599.69;5381159;26;20015;-53
2024/04/11 06:55:14;;;;;;;9.13;3.83;;;;;;;12.07;78.05;102604.16;5375987;26;20000;-50
2024/04/11 06:57:43;;;;;;;12.35;3.13;;;;;;;12.08;78.01;102612.09;5383023;26;20015;-50
2024/04/11 07:00:35;;;;;;;11.82;3.92;;;;;;;12.22;78.50;102620.06;5388728;26;20017;-52
2024/04/11 07:03:16;;;;;;;15.95;4.50;;;;;;;11.94;80.20;102607.66;5391915;26;21997;-50
2024/04/11 07:05:49;;;;;;;;;;;;;;;11.96;79.31;102612.91;5387662;26;20000;-50
2024/04/11 07:08:15;;;;;;;15.38;4.28;;;;;;;11.78;81.62;102625.69;5387359;26;20359;-47
2024/04/11 07:10:46;;;;;;;11.90;5.18;;;;;;;11.98;80.50;102619.88;5385188;26;20016;-50
2024/04/11 07:13:15;;;;;;;16.27;5.18;;;;;;;12.14;79.45;102627.72;5410628;26;20010;-50
2024/04/11 07:15:43;;;;;;;10.90;4.45;;;;;;;12.23;78.80;102634.28;5350236;26;20435;-47
2024/04/11 07:18:14;;;;;;;13.25;4.53;;;;;;;12.30;78.59;102632.91;5414769;26;20008;-51
2024/04/11 07:20:46;;;;;;;15.00;5.50;;;;;;;12.21;79.76;102647.75;5380137;26;19999;-52
2024/04/11 07:23:13;;;;;;;14.63;4.60;;;;;;;11.74;82.37;102644.66;5408696;26;20004;-53
2024/04/11 07:25:40;;;;;;;14.02;6.20;;;;;;;11.82;81.65;102643.22;5391546;26;20003;-52
2024/04/11 07:28:07;;;;;;;10.00;4.38;;;;;;;11.78;82.56;102663.09;5395571;26;20426;-54
2024/04/11 07:30:35;;;;;;;17.05;5.35;;;;;;;11.96;81.50;102655.66;5383592;26;20018;-50
2024/04/11 07:33:02;;;;;;;19.55;5.13;;;;;;;12.09;80.85;102663.72;5378720;26;20003;-47
2024/04/11 07:35:30;;;;;;;15.63;5.03;;;;;;;11.96;81.72;102659.19;5368830;26;19997;-50
2024/04/11 07:37:59;;;;;;;16.00;5.38;;;;;;;11.98;83.59;102656.44;5394102;26;20002;-52
2024/04/11 07:40:27;;;;;;;12.98;5.25;;;;;;;12.46;81.47;102656.81;5404685;26;20000;-54
2024/04/11 07:43:08;;;;;;;17.40;5.50;;;;;;;12.31;81.42;102653.34;5390730;26;19999;-54
2024/04/11 07:45:36;;;;;;;16.13;5.65;;;;;;;12.09;81.89;102658.38;5359763;26;20436;-53
2024/04/11 07:48:07;;;;;;;10.88;4.28;;;;;;;12.45;80.62;102658.63;5419198;26;20511;-52
2024/04/11 07:50:37;;;;;;;11.88;5.03;;;;;;;12.07;81.96;102649.59;5391812;26;20003;-48
2024/04/11 07:53:07;;;;;;;13.40;4.83;;;;;;;12.04;82.72;102656.03;5390676;26;20080;-50
2024/04/11 07:55:33;;;;;;;16.73;5.20;;;;;;;12.12;83.75;102674.25;5389593;26;20000;-49
2024/04/11 07:58:05;;;;;;;14.55;5.60;;;;;;;12.25;81.83;102675.16;5360228;26;20023;-50
2024/04/11 08:00:39;;;;;;;13.90;5.28;;;;;;;12.48;82.04;102673.59;5390371;26;20003;-54
2024/04/11 08:03:08;;;;;;;14.90;4.63;;;;;;;12.80;80.82;102671.44;5391517;26;19999;-48
2024/04/11 08:05:34;;;;;;;11.73;5.15;;;;;;;12.57;81.21;102675.66;5400400;26;20015;-55
2024/04/11 08:08:00;;;;;;;17.40;4.90;;;;;;;12.58;82.35;102682.72;5403961;26;20001;-54
2024/04/11 08:10:28;;;;;;;14.73;5.35;;;;;;;12.51;82.06;102690.28;5356504;26;20011;-50
2024/04/11 08:12:57;;;;;;;21.38;5.35;;;;;;;13.04;79.40;102673.25;5410215;26;20004;-53
2024/04/11 08:15:22;;;;;;;16.58;5.03;;;;;;;12.53;81.84;102675.00;5355286;26;20345;-51
2024/04/11 08:17:48;;;;;;;14.07;5.13;;;;;;;13.08;80.05;102682.78;5410396;26;20004;-49
2024/04/11 08:20:14;;;;;;;18.95;5.88;;;;;;;13.00;80.38;102677.13;5399535;26;20004;-53
2024/04/11 08:22:45;;;;;;;16.80;5.63;;;;;;;12.84;81.58;102668.44;5383634;26;20000;-52
2024/04/11 08:25:14;;;;;;;15.27;5.40;;;;;;;12.59;82.63;102674.59;5396281;26;20019;-52
2024/04/11 08:27:40;;;;;;;16.00;6.10;;;;;;;13.27;81.96;102682.38;5379240;26;20018;-52
2024/04/11 08:30:06;;;;;;;13.07;5.63;;;;;;;13.08;81.32;102674.75;5398542;26;20011;-52
2024/04/11 08:32:33;;;;;;;12.35;5.78;;;;;;;13.00;80.88;102681.63;5392480;26;19995;-47
2024/04/11 08:35:00;;;;;;;22.42;6.05;;;;;;;13.31;80.30;102681.19;5381914;26;19996;-51
2024/04/11 08:37:28;;;;;;;15.27;5.55;;;;;;;13.11;80.39;102697.78;5402026;26;20000;-50
2024/04/11 08:39:57;;;;;;;13.32;6.20;;;;;;;12.46;84.31;102697.78;5363946;26;19997;-49
2024/04/11 08:42:23;;;;;;;16.77;6.15;;;;;;;13.17;81.12;102698.22;5393837;26;20947;-46
2024/04/11 08:44:50;;;;;;;13.98;6.10;;;;;;;12.91;82.64;102692.97;5393019;26;19999;-47
2024/04/11 08:47:16;;;;;;;11.93;6.38;;;;;;;12.54;83.84;102702.59;5412422;26;20084;-50
2024/04/11 08:49:42;;;;;;;15.25;6.60;;;;;;;12.29;86.21;102696.22;5383292;26;21718;-51
2024/04/11 08:52:13;;;;;;;13.40;5.72;;;;;;;12.97;83.49;102687.19;5383404;26;20015;-51
2024/04/11 08:54:41;;;;;;;12.55;6.85;;;;;;;12.92;83.03;102705.38;5393963;26;20004;-49
2024/04/11 08:57:11;;;;;;;12.10;6.68;;;;;;;13.14;84.04;102705.63;5358957;26;20019;-50
2024/04/11 08:59:38;;;;;;;13.93;6.17;;;;;;;13.60;81.03;102710.44;5406211;26;20002;-50
2024/04/11 09:02:08;;;;;;;16.75;6.65;;;;;;;13.67;81.24;102725.09;5366953;26;20013;-49
2024/04/11 09:04:34;;;;;;;13.88;6.50;;;;;;;13.41;81.52;102718.88;5403038;26;20011;-49
2024/04/11 09:07:01;;;;;;;13.23;6.45;;;;;;;13.14;83.51;102714.50;5420254;26;19999;-53
2024/04/11 09:09:27;;;;;;;14.48;6.53;;;;;;;13.12;83.68;102721.78;5385090;26;20010;-52
2024/04/11 09:11:53;;;;;;;11.85;7.45;;;;;;;13.66;83.24;102726.91;5367756;26;20011;-53
2024/04/11 09:14:19;;;;;;;12.95;7.40;;;;;;;14.01;82.13;102732.41;5381341;26;20000;-51
2024/04/11 09:16:45;;;;;;;19.33;8.02;;;;;;;13.93;81.88;102738.31;5410232;26;20012;-49
2024/04/11 09:19:12;;;;;;;14.30;8.13;;;;;;;13.94;82.17;102748.09;5386984;26;20019;-56
2024/04/11 09:21:45;;;;;;;14.80;8.07;;;;;;;13.85;83.01;102739.84;5389615;26;20001;-49
2024/04/11 09:24:16;;;;;;;13.43;7.82;;;;;;;13.87;82.70;102749.50;5413405;26;20014;-51
2024/04/11 09:26:43;;;;;;;17.25;8.25;;;;;;;14.04;81.58;102747.44;5387959;26;20416;-54
2024/04/11 09:29:13;;;;;;;13.38;8.02;;;;;;;13.73;82.80;102749.63;5403152;26;20000;-48
2024/04/11 09:31:39;;;;;;;13.25;8.30;;;;;;;14.03;81.85;102754.63;5382021;26;19999;-49
2024/04/11 09:34:13;;;;;;;13.68;8.65;;;;;;;13.65;83.37;102754.69;5414110;26;20003;-55
2024/04/11 09:36:47;;;;;;;16.50;8.38;;;;;;;13.74;84.99;102755.84;5401765;26;19995;-53
2024/04/11 09:39:41;;;;;;;18.85;8.85;;;;;;;14.25;82.62;102752.06;5412161;26;19999;-50
2024/04/11 09:42:11;;;;;;;16.52;9.13;;;;;;;14.39;80.74;102760.91;5399863;26;20803;-54
2024/04/11 09:44:46;;;;;;;13.85;9.02;;;;;;;14.13;81.08;102768.19;5381323;26;20008;-52
2024/04/11 09:47:26;;;;;;;15.48;8.98;;;;;;;14.32;82.54;102771.22;5391404;26;20451;-53
2024/04/11 09:49:55;;;;;;;13.53;8.00;;;;;;;13.71;83.94;102769.44;5347959;26;19999;-52
2024/04/11 09:52:26;;;;;;;15.07;8.80;;;;;;;13.94;85.30;102760.63;5386885;26;20328;-55
2024/04/11 09:54:52;;;;;;;18.08;9.13;;;;;;;14.28;84.07;102767.94;5415110;26;20427;-50
2024/04/11 09:57:21;;;;;;;13.20;8.55;;;;;;;14.59;80.97;102771.88;5372894;26;20011;-53
2024/04/11 09:59:48;;;;;;;13.05;8.30;;;;;;;14.26;82.36;102783.28;5386522;26;19999;-49
2024/04/11 10:02:16;;;;;;;16.17;7.95;;;;;;;14.39;80.93;102777.00;5411908;26;20330;-52
2024/04/11 10:04:44;;;;;;;17.25;8.45;;;;;;;14.62;80.88;102781.56;5327959;26;21334;-50
2024/04/11 10:07:12;;;;;;;14.55;8.10;;;;;;;14.28;82.76;102781.34;5387543;26;20419;-50
2024/04/11 10:09:49;;;;;;;11.35;7.88;;;;;;;14.58;83.22;102780.06;5386903;26;20014;-51
2024/04/11 10:12:28;;;;;;;16.33;8.60;;;;;;;14.84;81.57;102787.03;5380574;26;20006;-53
2024/04/11 10:14:57;;;;;;;11.57;8.45;;;;;;;14.91;81.47;102776.66;5376453;26;22065;-54
2024/04/11 10:17:29;;;;;;;13.30;7.95;;;;;;;14.87;81.25;102784.09;5382452;26;20001;-53
2024/04/11 10:20:07;;;;;;;14.65;7.63;;;;;;;15.28;80.85;102788.97;5405149;26;20080;-52
2024/04/11 10:22:43;;;;;;;10.27;7.00;;;;;;;14.74;81.94;102786.00;5377539;26;19999;-55
2024/04/11 10:25:17;;;;;;;9.95;7.22;;;;;;;15.02;81.06;102792.81;5386310;26;20347;-53
2024/04/11 10:27:47;;;;;;;8.52;6.22;;;;;;;14.55;82.53;102802.63;5345580;26;20090;-52
2024/04/11 10:30:17;;;;;;;8.73;6.80;;;;;;;14.57;82.78;102799.81;5386520;26;20015;-54
2024/04/11 10:32:51;;;;;;;8.20;6.30;;;;;;;14.67;81.81;102803.53;5410444;26;20458;-52
2024/04/11 10:35:23;;;;;;;12.18;6.97;;;;;;;14.73;82.75;102801.25;5386940;26;20000;-54
2024/04/11 10:37:49;;;;;;;10.98;6.88;;;;;;;15.08;81.98;102805.75;5387748;26;20015;-49
2024/04/11 10:40:24;;;;;;;10.10;6.95;;;;;;;14.97;82.63;102819.16;5390226;26;20003;-53
2024/04/11 10:45:34;;;;;;;9.13;6.32;;;;;;;14.38;84.87;102823.59;5383308;26;20423;-53
2024/04/11 10:48:06;;;;;;;11.10;6.72;;;;;;;14.52;83.93;102821.63;5390887;26;20010;-50
2024/04/11 10:50:32;;;;;;;8.57;6.82;;;;;;;14.82;83.41;102831.91;5397488;26;20001;-55
2024/04/11 10:53:02;;;;;;;9.75;7.20;;;;;;;14.51;84.33;102830.66;5361696;26;20006;-53
2024/04/11 10:55:29;;;;;;;9.15;6.45;;;;;;;14.20;85.56;102826.63;5371790;26;20327;-49
2024/04/11 10:58:14;;;;;;;8.45;6.03;;;;;;;14.73;84.06;102835.28;5401472;26;19996;-47
2024/04/11 11:03:40;;;;;;;11.30;6.55;;;;;;;14.65;83.89;102826.97;5392425;26;20011;-53
2024/04/11 11:06:26;;;;;;;9.15;7.00;;;;;;;15.15;83.53;102828.50;5422515;26;20074;-55
2024/04/11 11:08:59;;;;;;;8.65;7.00;;;;;;;14.70;84.24;102827.47;5371838;26;20328;-52
2024/04/11 11:11:26;;;;;;;11.73;7.38;;;;;;;15.37;82.91;102812.47;5381514;26;20000;-53
2024/04/11 11:14:00;;;;;;;9.55;7.32;;;;;;;15.50;82.35;102823.13;5372825;26;20348;-53
2024/04/11 11:16:31;;;;;;;10.60;7.03;;;;;;;15.55;81.46;102820.06;5391866;26;20008;-52
2024/04/11 11:18:58;;;;;;;11.40;7.32;;;;;;;15.28;83.50;102821.19;5384539;26;20004;-51
2024/04/11 11:21:25;;;;;;;10.20;7.50;;;;;;;15.43;82.21;102835.31;5389322;26;20019;-53
2024/04/11 11:24:00;;;;;;;9.45;6.90;;;;;;;15.50;82.63;102841.94;5399370;26;20004;-48
2024/04/11 11:26:35;;;;;;;9.43;6.97;;;;;;;15.38;82.05;102851.81;5402445;26;20003;-50
2024/04/11 11:29:27;;;;;;;9.13;6.68;;;;;;;15.57;81.36;102845.00;5402904;26;20011;-55
2024/04/11 11:32:02;;;;;;;9.20;6.55;;;;;;;15.35;83.70;102857.41;5400638;26;21775;-53
2024/04/11 11:34:30;;;;;;;9.75;6.90;;;;;;;15.63;82.31;102852.56;5380145;26;20014;-51
2024/04/11 11:37:03;;;;;;;11.20;7.20;;;;;;;15.63;81.35;102850.75;5376270;26;20008;-54